createdAt,value
2022-12-29T00:01:53.546Z,4.60
2022-12-29T00:03:55.301Z,4.60
2022-12-29T00:05:58.396Z,4.70
2022-12-29T00:08:00.055Z,4.60
2022-12-29T00:10:01.741Z,4.70
2022-12-29T00:12:04.261Z,4.60
2022-12-29T00:14:26.264Z,4.70
2022-12-29T00:16:28.756Z,4.70
2022-12-29T00:18:30.438Z,4.80
2022-12-29T00:20:53.255Z,4.90
2022-12-29T00:23:13.460Z,4.90
2022-12-29T00:25:34.744Z,4.90
2022-12-29T00:27:54.859Z,4.90
2022-12-29T00:30:14.977Z,4.90
2022-12-29T00:32:35.161Z,4.80
2022-12-29T00:34:55.298Z,4.80
2022-12-29T00:36:57.175Z,4.80
2022-12-29T00:39:19.125Z,4.80
2022-12-29T00:41:39.200Z,4.70
2022-12-29T00:43:59.242Z,4.70
2022-12-29T00:46:00.946Z,4.70
2022-12-29T00:48:02.632Z,4.70
2022-12-29T00:50:04.496Z,4.70
2022-12-29T00:52:10.545Z,4.80
2022-12-29T00:54:12.410Z,4.80
2022-12-29T00:56:14.027Z,4.80
2022-12-29T00:58:15.706Z,4.80
2022-12-29T01:00:17.342Z,4.80
2022-12-29T01:02:19.001Z,4.80
2022-12-29T01:04:21.732Z,4.80
2022-12-29T01:06:26.066Z,4.80
2022-12-29T01:08:31.285Z,4.80
2022-12-29T01:10:32.925Z,4.90
2022-12-29T01:12:41.624Z,4.80
2022-12-29T01:14:43.483Z,5.00
2022-12-29T01:16:45.344Z,4.90
2022-12-29T01:18:47.206Z,4.90
2022-12-29T01:20:48.952Z,4.80
2022-12-29T01:22:50.686Z,4.80
2022-12-29T01:24:52.325Z,4.90
2022-12-29T01:26:55.445Z,4.80
2022-12-29T01:28:57.271Z,4.80
2022-12-29T01:31:03.107Z,4.80
2022-12-29T01:33:04.704Z,4.90
2022-12-29T01:35:06.438Z,4.80
2022-12-29T01:37:08.029Z,4.90
2022-12-29T01:39:09.611Z,4.90
2022-12-29T01:41:12.737Z,4.90
2022-12-29T01:43:15.485Z,5.00
2022-12-29T01:45:18.045Z,5.00
2022-12-29T01:47:38.576Z,5.10
2022-12-29T01:49:40.359Z,5.10
2022-12-29T01:51:44.592Z,5.10
2022-12-29T01:53:46.471Z,5.10
2022-12-29T01:55:52.897Z,5.20
2022-12-29T01:57:56.238Z,5.10
2022-12-29T02:00:01.219Z,5.20
2022-12-29T02:02:03.190Z,5.20
2022-12-29T02:04:05.117Z,5.10
2022-12-29T02:06:16.391Z,5.10
2022-12-29T02:08:19.346Z,5.10
2022-12-29T02:10:25.689Z,5.20
2022-12-29T02:12:27.326Z,5.10
2022-12-29T02:14:29.649Z,5.10
2022-12-29T02:16:31.931Z,5.10
2022-12-29T02:18:51.681Z,5.10
2022-12-29T02:21:22.530Z,5.10
2022-12-29T02:23:42.897Z,5.10
2022-12-29T02:25:59.282Z,5.10
2022-12-29T02:28:10.007Z,5.10
2022-12-29T02:30:44.817Z,5.10
2022-12-29T02:32:52.341Z,5.00
2022-12-29T02:34:53.943Z,5.00
2022-12-29T02:37:14.429Z,5.00
2022-12-29T02:39:19.311Z,5.10
2022-12-29T02:41:24.331Z,5.10
2022-12-29T02:43:34.881Z,5.10
2022-12-29T02:45:49.860Z,5.10
2022-12-29T02:48:21.049Z,5.20
2022-12-29T02:50:26.222Z,5.30
2022-12-29T02:52:31.319Z,5.30
2022-12-29T02:54:42.216Z,5.30
2022-12-29T02:56:43.795Z,5.30
2022-12-29T02:58:45.628Z,5.30
2022-12-29T03:01:05.944Z,5.40
2022-12-29T03:03:15.333Z,5.40
2022-12-29T03:05:16.988Z,5.40
2022-12-29T03:07:34.401Z,5.40
2022-12-29T03:09:42.337Z,5.40
2022-12-29T03:12:08.181Z,5.40
2022-12-29T03:14:33.023Z,5.40
2022-12-29T03:16:37.582Z,5.40
2022-12-29T03:19:11.945Z,5.40
2022-12-29T03:21:13.771Z,5.40
2022-12-29T03:23:17.054Z,5.40
2022-12-29T03:25:19.980Z,5.40
2022-12-29T03:27:24.896Z,5.40
2022-12-29T03:29:27.927Z,5.40
2022-12-29T03:31:30.392Z,5.50
2022-12-29T03:33:33.231Z,5.90
2022-12-29T03:35:36.835Z,6.10
2022-12-29T03:37:44.538Z,6.20
2022-12-29T03:39:46.303Z,6.10
2022-12-29T03:41:49.954Z,6.40
2022-12-29T03:43:51.582Z,6.40
2022-12-29T03:45:53.388Z,7.80
2022-12-29T03:47:55.011Z,8.00
2022-12-29T03:49:56.636Z,8.00
2022-12-29T03:51:58.241Z,8.50
2022-12-29T03:53:59.883Z,8.80
2022-12-29T03:56:01.469Z,8.40
2022-12-29T03:58:03.126Z,8.30
2022-12-29T04:00:05.309Z,8.20
2022-12-29T04:02:07.115Z,8.20
2022-12-29T04:04:08.921Z,8.10
2022-12-29T04:06:10.548Z,8.20
2022-12-29T04:08:12.185Z,8.10
2022-12-29T04:10:13.820Z,8.10
2022-12-29T04:12:15.475Z,8.10
2022-12-29T04:14:17.165Z,8.20
2022-12-29T04:16:20.142Z,8.00
2022-12-29T04:18:21.785Z,8.30
2022-12-29T04:20:42.357Z,8.30
2022-12-29T04:22:43.994Z,8.20
2022-12-29T04:24:45.672Z,8.00
2022-12-29T04:26:47.288Z,8.10
2022-12-29T04:28:48.919Z,8.10
2022-12-29T04:30:50.773Z,8.10
2022-12-29T04:32:52.416Z,8.10
2022-12-29T04:34:54.078Z,8.50
2022-12-29T04:36:55.669Z,8.30
2022-12-29T04:38:57.491Z,9.10
2022-12-29T04:41:02.624Z,9.30
2022-12-29T04:43:04.360Z,9.00
2022-12-29T04:45:06.254Z,9.10
2022-12-29T04:47:07.822Z,8.70
2022-12-29T04:49:09.742Z,8.40
2022-12-29T04:51:11.539Z,8.00
2022-12-29T04:53:13.126Z,7.90
2022-12-29T04:55:15.025Z,7.70
2022-12-29T04:57:16.622Z,7.60
2022-12-29T04:59:18.293Z,7.60
2022-12-29T05:01:20.304Z,7.50
2022-12-29T05:03:22.092Z,7.60
2022-12-29T05:05:23.887Z,7.70
2022-12-29T05:07:26.065Z,7.50
2022-12-29T05:09:27.682Z,7.30
2022-12-29T05:11:29.279Z,7.30
2022-12-29T05:13:30.855Z,7.20
2022-12-29T05:15:32.432Z,7.30
2022-12-29T05:17:34.285Z,7.30
2022-12-29T05:19:35.968Z,7.50
2022-12-29T05:21:37.591Z,7.70
2022-12-29T05:23:39.244Z,7.70
2022-12-29T05:25:40.851Z,7.90
2022-12-29T05:27:42.543Z,7.90
2022-12-29T05:29:44.197Z,8.10
2022-12-29T05:31:45.922Z,8.30
2022-12-29T05:33:47.589Z,8.60
2022-12-29T05:35:49.246Z,8.70
2022-12-29T05:37:50.905Z,8.60
2022-12-29T05:39:52.524Z,8.70
2022-12-29T05:41:54.098Z,8.70
2022-12-29T05:43:55.706Z,8.70
2022-12-29T05:45:58.611Z,8.90
2022-12-29T05:48:00.265Z,9.10
2022-12-29T05:50:02.252Z,9.20
2022-12-29T05:52:04.038Z,9.20
2022-12-29T05:54:05.686Z,9.10
2022-12-29T05:56:07.354Z,9.10
2022-12-29T05:58:09.595Z,9.10
2022-12-29T06:00:11.561Z,9.10
2022-12-29T06:02:13.326Z,9.10
2022-12-29T06:04:15.789Z,9.10
2022-12-29T06:06:17.450Z,9.10
2022-12-29T06:08:19.066Z,9.10
2022-12-29T06:10:20.697Z,9.10
2022-12-29T06:12:22.381Z,9.10
2022-12-29T06:14:24.072Z,9.00
2022-12-29T06:16:25.825Z,9.00
2022-12-29T06:18:27.545Z,8.90
2022-12-29T06:20:29.504Z,9.00
2022-12-29T06:22:31.323Z,9.00
2022-12-29T06:24:32.960Z,9.10
2022-12-29T06:26:34.672Z,9.00
2022-12-29T06:28:36.275Z,9.10
2022-12-29T06:30:37.941Z,9.00
2022-12-29T06:32:39.773Z,8.90
2022-12-29T06:34:41.938Z,8.80
2022-12-29T06:36:43.605Z,8.80
2022-12-29T06:38:45.266Z,8.70
2022-12-29T06:40:46.981Z,8.70
2022-12-29T06:42:48.563Z,8.70
2022-12-29T06:44:50.600Z,8.60
2022-12-29T06:46:52.720Z,8.60
2022-12-29T06:48:54.316Z,8.50
2022-12-29T06:50:55.993Z,8.50
2022-12-29T06:52:57.586Z,8.50
2022-12-29T06:54:59.887Z,8.60
2022-12-29T06:57:01.524Z,8.60
2022-12-29T06:59:03.346Z,8.60
2022-12-29T07:01:05.053Z,8.70
2022-12-29T07:03:07.025Z,8.80
2022-12-29T07:05:10.385Z,8.80
2022-12-29T07:07:11.996Z,8.60
2022-12-29T07:09:13.616Z,8.70
2022-12-29T07:11:15.279Z,8.70
2022-12-29T07:13:16.937Z,8.70
2022-12-29T07:15:18.932Z,8.70
2022-12-29T07:17:20.534Z,8.60
2022-12-29T07:19:22.167Z,8.70
2022-12-29T07:21:23.784Z,8.60
2022-12-29T07:23:25.413Z,8.60
2022-12-29T07:25:27.109Z,8.60
2022-12-29T07:27:28.733Z,8.40
2022-12-29T07:29:30.299Z,8.30
2022-12-29T07:31:32.108Z,8.20
2022-12-29T07:33:33.978Z,8.10
2022-12-29T07:35:35.687Z,8.10
2022-12-29T07:37:37.357Z,8.00
2022-12-29T07:39:38.953Z,7.90
2022-12-29T07:41:40.630Z,7.90
2022-12-29T07:43:42.323Z,7.80
2022-12-29T07:45:43.980Z,7.80
2022-12-29T07:47:48.277Z,7.80
2022-12-29T07:49:49.893Z,7.80
2022-12-29T07:51:51.555Z,7.80
2022-12-29T07:53:53.158Z,7.90
2022-12-29T07:55:54.736Z,7.80
2022-12-29T07:57:56.684Z,7.90
2022-12-29T07:59:58.418Z,8.00
2022-12-29T08:02:00.344Z,8.20
2022-12-29T08:04:02.174Z,8.40
2022-12-29T08:06:03.991Z,8.70
2022-12-29T08:08:05.732Z,8.60
2022-12-29T08:10:07.551Z,8.50
2022-12-29T08:12:10.226Z,8.50
2022-12-29T08:14:12.004Z,8.50
2022-12-29T08:16:13.727Z,8.50
2022-12-29T08:18:15.371Z,8.60
2022-12-29T08:20:17.080Z,8.70
2022-12-29T08:22:18.785Z,8.90
2022-12-29T08:24:20.539Z,8.90
2022-12-29T08:26:22.751Z,9.10
2022-12-29T08:28:25.841Z,9.10
2022-12-29T08:30:27.519Z,9.20
2022-12-29T08:32:29.514Z,9.30
2022-12-29T08:34:32.389Z,9.30
2022-12-29T08:36:34.050Z,9.30
2022-12-29T08:38:35.637Z,9.40
2022-12-29T08:40:37.251Z,10.00
2022-12-29T08:42:38.839Z,10.10
2022-12-29T08:44:40.660Z,10.20
2022-12-29T08:46:42.354Z,10.50
2022-12-29T08:48:44.339Z,10.50
2022-12-29T08:50:46.862Z,10.40
2022-12-29T08:52:48.501Z,10.20
2022-12-29T08:54:50.162Z,10.30
2022-12-29T08:56:51.822Z,10.30
2022-12-29T08:58:53.982Z,10.50
2022-12-29T09:00:56.183Z,10.50
2022-12-29T09:02:57.993Z,10.40
2022-12-29T09:05:00.073Z,10.30
2022-12-29T09:07:01.779Z,10.20
2022-12-29T09:09:03.425Z,10.00
2022-12-29T09:11:12.490Z,9.90
2022-12-29T09:13:14.719Z,9.80
2022-12-29T09:15:16.695Z,9.70
2022-12-29T09:17:37.192Z,9.90
2022-12-29T09:19:38.825Z,10.00
2022-12-29T09:21:40.494Z,10.10
2022-12-29T09:23:42.092Z,10.10
2022-12-29T09:25:44.393Z,10.20
2022-12-29T09:27:46.297Z,10.20
2022-12-29T09:29:47.923Z,10.40
2022-12-29T09:31:49.639Z,10.40
2022-12-29T09:33:51.314Z,10.40
2022-12-29T09:35:54.200Z,10.70
2022-12-29T09:37:55.823Z,10.70
2022-12-29T09:39:57.438Z,10.70
2022-12-29T09:42:18.050Z,10.90
2022-12-29T09:44:39.952Z,10.80
2022-12-29T09:46:43.809Z,10.90
2022-12-29T09:48:48.523Z,11.20
2022-12-29T09:50:53.104Z,11.20
2022-12-29T09:53:07.129Z,11.40
2022-12-29T09:55:14.899Z,11.50
2022-12-29T09:57:22.735Z,11.60
2022-12-29T09:59:28.097Z,11.50
2022-12-29T10:01:32.727Z,11.80
2022-12-29T10:03:51.101Z,12.00
2022-12-29T10:06:11.069Z,12.30
2022-12-29T10:08:21.969Z,12.30
2022-12-29T10:10:30.300Z,12.20
2022-12-29T10:12:50.505Z,12.40
2022-12-29T10:15:03.005Z,12.40
2022-12-29T10:17:04.632Z,12.30
2022-12-29T10:19:33.167Z,12.30
2022-12-29T10:21:35.229Z,12.10
2022-12-29T10:23:39.829Z,11.90
2022-12-29T10:25:43.024Z,12.00
2022-12-29T10:27:48.020Z,11.80
2022-12-29T10:29:52.693Z,11.80
2022-12-29T10:31:59.832Z,11.90
2022-12-29T10:34:04.468Z,11.90
2022-12-29T10:36:26.358Z,12.10
2022-12-29T10:38:42.191Z,12.20
2022-12-29T10:40:47.401Z,12.10
2022-12-29T10:42:53.213Z,12.30
2022-12-29T10:44:55.835Z,12.50
2022-12-29T10:47:03.450Z,12.60
2022-12-29T10:49:06.568Z,12.60
2022-12-29T10:51:12.410Z,12.60
2022-12-29T10:53:19.171Z,12.70
2022-12-29T10:55:23.923Z,13.00
2022-12-29T10:57:25.645Z,13.30
2022-12-29T10:59:31.233Z,13.50
2022-12-29T11:01:41.066Z,13.50
2022-12-29T11:03:49.017Z,13.30
2022-12-29T11:06:06.024Z,13.10
2022-12-29T11:08:13.182Z,13.10
2022-12-29T11:10:29.544Z,13.00
2022-12-29T11:12:31.856Z,13.10
2022-12-29T11:14:33.504Z,13.20
2022-12-29T11:16:35.832Z,13.10
2022-12-29T11:18:38.407Z,13.00
2022-12-29T11:20:40.381Z,13.00
2022-12-29T11:22:44.739Z,13.00
2022-12-29T11:24:47.672Z,12.90
2022-12-29T11:26:59.182Z,12.90
2022-12-29T11:29:16.258Z,13.00
2022-12-29T11:31:18.776Z,13.00
2022-12-29T11:33:20.440Z,13.00
2022-12-29T11:35:32.917Z,13.00
2022-12-29T11:37:40.061Z,12.90
2022-12-29T11:39:53.286Z,12.70
2022-12-29T11:41:54.992Z,12.70
2022-12-29T11:43:58.145Z,12.70
2022-12-29T11:46:00.462Z,12.70
2022-12-29T11:48:06.725Z,12.70
2022-12-29T11:50:09.225Z,12.80
2022-12-29T11:52:11.010Z,12.90
2022-12-29T11:54:20.425Z,13.00
2022-12-29T11:56:24.531Z,13.00
2022-12-29T11:58:33.683Z,13.10
2022-12-29T12:00:37.003Z,13.10
2022-12-29T12:02:43.736Z,13.10
2022-12-29T12:04:45.841Z,13.10
2022-12-29T12:06:59.020Z,13.00
2022-12-29T12:09:03.549Z,13.00
2022-12-29T12:11:09.310Z,12.80
2022-12-29T12:13:23.147Z,12.80
2022-12-29T12:15:56.799Z,12.80
2022-12-29T12:18:17.427Z,12.80
2022-12-29T12:20:23.035Z,12.70
2022-12-29T12:22:33.055Z,12.70
2022-12-29T12:24:34.626Z,12.60
2022-12-29T12:26:43.109Z,12.60
2022-12-29T12:28:54.864Z,12.70
2022-12-29T12:30:58.034Z,12.70
2022-12-29T12:33:03.408Z,12.70
2022-12-29T12:35:05.304Z,12.90
2022-12-29T12:37:09.696Z,12.90
2022-12-29T12:39:11.329Z,12.90
2022-12-29T12:41:21.644Z,12.90
2022-12-29T12:43:38.082Z,12.90
2022-12-29T12:45:59.293Z,12.80
2022-12-29T12:48:06.819Z,12.80
2022-12-29T12:50:08.539Z,12.60
2022-12-29T12:52:25.217Z,12.50
2022-12-29T12:54:38.108Z,12.40
2022-12-29T12:56:39.732Z,12.40
2022-12-29T12:58:56.735Z,12.30
2022-12-29T13:00:58.355Z,12.30
2022-12-29T13:03:00.074Z,12.70
2022-12-29T13:05:05.565Z,12.90
2022-12-29T13:07:16.705Z,12.90
2022-12-29T13:09:27.433Z,13.00
2022-12-29T13:11:41.339Z,13.10
2022-12-29T13:13:43.087Z,13.20
2022-12-29T13:16:13.837Z,13.10
2022-12-29T13:18:16.022Z,13.10
2022-12-29T13:20:36.670Z,13.10
2022-12-29T13:22:43.504Z,13.30
2022-12-29T13:25:03.171Z,13.20
2022-12-29T13:27:19.931Z,13.30
2022-12-29T13:29:30.297Z,13.70
2022-12-29T13:31:41.379Z,14.10
2022-12-29T13:33:46.418Z,14.00
2022-12-29T13:35:50.977Z,13.80
2022-12-29T13:37:57.726Z,13.30
2022-12-29T13:40:04.743Z,13.10
2022-12-29T13:42:07.407Z,13.00
2022-12-29T13:44:12.554Z,12.90
2022-12-29T13:46:16.845Z,12.90
2022-12-29T13:48:22.853Z,12.90
2022-12-29T13:50:26.686Z,12.80
2022-12-29T13:52:40.504Z,12.90
2022-12-29T13:54:46.556Z,12.90
2022-12-29T13:56:48.239Z,12.90
2022-12-29T13:59:08.220Z,12.90
2022-12-29T14:01:31.047Z,13.00
2022-12-29T14:03:44.030Z,12.90
2022-12-29T14:05:48.141Z,12.90
2022-12-29T14:07:57.277Z,12.90
2022-12-29T14:09:58.870Z,12.80
2022-12-29T14:12:00.509Z,12.90
2022-12-29T14:14:20.206Z,13.00
2022-12-29T14:16:40.111Z,13.00
2022-12-29T14:18:43.523Z,13.00
2022-12-29T14:21:08.491Z,12.90
2022-12-29T14:23:10.102Z,12.80
2022-12-29T14:25:31.639Z,12.80
2022-12-29T14:27:51.420Z,12.90
2022-12-29T14:29:53.137Z,12.70
2022-12-29T14:31:54.949Z,12.50
2022-12-29T14:34:11.652Z,12.50
2022-12-29T14:36:27.626Z,12.60
2022-12-29T14:38:30.758Z,12.70
2022-12-29T14:40:34.608Z,12.70
2022-12-29T14:42:36.469Z,12.70
2022-12-29T14:44:59.564Z,12.70
2022-12-29T14:47:05.517Z,12.50
2022-12-29T14:49:14.687Z,12.40
2022-12-29T14:51:20.755Z,12.40
2022-12-29T14:53:41.058Z,12.30
2022-12-29T14:55:51.016Z,12.20
2022-12-29T14:57:54.507Z,12.00
2022-12-29T14:59:59.061Z,11.90
2022-12-29T15:02:02.379Z,11.80
2022-12-29T15:04:23.727Z,11.60
2022-12-29T15:06:26.626Z,11.50
2022-12-29T15:08:30.914Z,11.50
2022-12-29T15:10:36.748Z,11.50
2022-12-29T15:12:38.558Z,11.40
2022-12-29T15:14:48.834Z,11.30
2022-12-29T15:16:50.476Z,11.10
2022-12-29T15:18:52.688Z,11.10
2022-12-29T15:20:56.130Z,11.00
2022-12-29T15:23:07.464Z,10.80
2022-12-29T15:25:15.564Z,10.70
2022-12-29T15:27:19.598Z,10.60
2022-12-29T15:29:37.053Z,10.50
2022-12-29T15:31:46.727Z,10.40
2022-12-29T15:33:49.770Z,10.30
2022-12-29T15:35:52.717Z,10.40
2022-12-29T15:37:54.514Z,10.40
2022-12-29T15:39:56.746Z,10.30
2022-12-29T15:42:05.314Z,10.30
2022-12-29T15:44:07.106Z,10.50
2022-12-29T15:46:08.837Z,10.50
2022-12-29T15:48:16.492Z,10.70
2022-12-29T15:50:27.133Z,10.90
2022-12-29T15:52:29.744Z,11.30
2022-12-29T15:54:32.232Z,11.30
2022-12-29T15:56:34.126Z,11.20
2022-12-29T15:58:45.524Z,11.50
2022-12-29T16:00:48.404Z,11.50
2022-12-29T16:02:50.273Z,11.50
2022-12-29T16:07:43.434Z,11.60
2022-12-29T16:09:45.402Z,11.40
2022-12-29T16:11:55.006Z,11.30
2022-12-29T16:13:57.042Z,11.30
2022-12-29T16:16:03.743Z,11.20
2022-12-29T16:18:05.536Z,11.10
2022-12-29T16:20:17.146Z,11.30
2022-12-29T16:22:23.653Z,11.20
2022-12-29T16:24:27.316Z,11.10
2022-12-29T16:26:29.355Z,11.00
2022-12-29T16:28:36.053Z,11.10
2022-12-29T16:30:37.792Z,11.10
2022-12-29T16:32:45.868Z,11.10
2022-12-29T16:34:47.567Z,11.20
2022-12-29T16:36:58.557Z,11.10
2022-12-29T16:39:12.325Z,11.10
2022-12-29T16:41:28.729Z,11.00
2022-12-29T16:43:35.698Z,11.00
2022-12-29T16:45:49.441Z,10.90
2022-12-29T16:48:06.181Z,10.90
2022-12-29T16:50:17.595Z,10.90
2022-12-29T16:52:19.234Z,10.80
2022-12-29T16:54:22.886Z,10.70
2022-12-29T16:56:27.755Z,10.70
2022-12-29T16:58:32.728Z,10.70
2022-12-29T17:00:36.325Z,10.60
2022-12-29T17:02:45.752Z,10.50
2022-12-29T17:04:50.553Z,10.50
2022-12-29T17:06:52.184Z,10.50
2022-12-29T17:08:53.813Z,10.40
2022-12-29T17:11:15.244Z,10.30
2022-12-29T17:13:16.878Z,10.30
2022-12-29T17:15:26.929Z,10.30
2022-12-29T17:17:31.922Z,10.30
2022-12-29T17:19:35.366Z,10.20
2022-12-29T17:21:36.969Z,10.20
2022-12-29T17:23:38.636Z,10.20
2022-12-29T17:25:40.361Z,10.10
2022-12-29T17:27:43.768Z,10.10
2022-12-29T17:29:45.909Z,10.10
2022-12-29T17:31:47.860Z,10.10
2022-12-29T17:33:49.548Z,10.00
2022-12-29T17:35:55.500Z,10.00
2022-12-29T17:37:57.655Z,10.00
2022-12-29T17:39:59.369Z,9.90
2022-12-29T17:42:01.389Z,9.90
2022-12-29T17:44:03.368Z,9.90
2022-12-29T17:46:06.835Z,9.90
2022-12-29T17:48:12.736Z,9.90
2022-12-29T17:50:15.787Z,9.90
2022-12-29T17:52:17.633Z,9.90
2022-12-29T17:54:19.190Z,9.90
2022-12-29T17:56:20.915Z,9.80
2022-12-29T17:58:23.290Z,9.90
2022-12-29T18:00:28.754Z,9.80
2022-12-29T18:02:31.712Z,9.80
2022-12-29T18:04:33.490Z,9.80
2022-12-29T18:06:35.095Z,9.70
2022-12-29T18:08:38.604Z,9.70
2022-12-29T18:10:40.250Z,9.60
2022-12-29T18:12:43.578Z,9.60
2022-12-29T18:14:45.178Z,9.50
2022-12-29T18:16:46.807Z,9.50
2022-12-29T18:18:48.499Z,9.50
2022-12-29T18:20:51.404Z,9.50
2022-12-29T18:22:53.069Z,9.50
2022-12-29T18:24:54.954Z,9.50
2022-12-29T18:26:56.675Z,9.50
2022-12-29T18:28:58.987Z,9.50
2022-12-29T18:31:01.452Z,9.50
2022-12-29T18:33:03.210Z,9.50
2022-12-29T18:35:09.996Z,9.50
2022-12-29T18:37:11.599Z,9.50
2022-12-29T18:39:13.305Z,9.60
2022-12-29T18:41:16.479Z,9.60
2022-12-29T18:43:18.694Z,9.60
2022-12-29T18:45:22.237Z,9.60
2022-12-29T18:47:23.860Z,9.70
2022-12-29T18:49:25.564Z,9.70
2022-12-29T18:51:27.248Z,9.70
2022-12-29T18:53:28.846Z,9.70
2022-12-29T18:55:30.618Z,9.60
2022-12-29T18:57:33.002Z,9.50
2022-12-29T18:59:34.622Z,9.50
2022-12-29T19:01:36.304Z,9.50
2022-12-29T19:03:38.108Z,9.50
2022-12-29T19:05:41.111Z,9.50
2022-12-29T19:07:42.761Z,9.40
2022-12-29T19:09:44.432Z,9.40
2022-12-29T19:11:46.175Z,9.30
2022-12-29T19:13:47.826Z,9.30
2022-12-29T19:15:49.689Z,9.30
2022-12-29T19:18:16.031Z,9.30
2022-12-29T19:20:39.869Z,9.20
2022-12-29T19:22:41.741Z,9.20
2022-12-29T19:24:43.817Z,9.30
2022-12-29T19:26:45.646Z,9.30
2022-12-29T19:28:47.501Z,9.20
2022-12-29T19:30:52.490Z,9.20
2022-12-29T19:32:56.706Z,9.10
2022-12-29T19:34:58.413Z,9.20
2022-12-29T19:37:00.280Z,9.20
2022-12-29T19:39:02.194Z,9.20
2022-12-29T19:41:07.025Z,9.20
2022-12-29T19:43:10.311Z,9.20
2022-12-29T19:45:12.542Z,9.10
2022-12-29T19:47:14.361Z,9.10
2022-12-29T19:49:16.155Z,9.00
2022-12-29T19:51:18.474Z,9.00
2022-12-29T19:53:20.797Z,9.00
2022-12-29T19:55:22.392Z,9.00
2022-12-29T19:57:24.791Z,9.00
2022-12-29T19:59:26.475Z,8.90
2022-12-29T20:01:28.368Z,9.00
2022-12-29T20:03:30.148Z,8.90
2022-12-29T20:05:32.077Z,8.90
2022-12-29T20:07:33.756Z,8.90
2022-12-29T20:09:42.766Z,8.90
2022-12-29T20:11:44.710Z,8.90
2022-12-29T20:13:46.956Z,8.80
2022-12-29T20:15:48.634Z,8.80
2022-12-29T20:20:14.132Z,8.80
2022-12-29T20:22:18.364Z,8.80
2022-12-29T20:24:20.352Z,8.70
2022-12-29T20:26:24.390Z,8.80
2022-12-29T20:28:27.868Z,8.70
2022-12-29T20:30:29.600Z,8.70
2022-12-29T20:32:31.391Z,8.70
2022-12-29T20:34:33.429Z,8.70
2022-12-29T20:36:36.473Z,8.70
2022-12-29T20:38:38.758Z,8.70
2022-12-29T20:40:46.272Z,8.60
2022-12-29T20:42:48.680Z,8.60
2022-12-29T20:44:51.056Z,8.60
2022-12-29T20:46:53.022Z,8.60
2022-12-29T20:48:54.840Z,8.60
2022-12-29T20:51:01.592Z,8.50
2022-12-29T20:53:03.555Z,8.50
2022-12-29T20:55:05.463Z,8.60
2022-12-29T20:57:07.422Z,8.50
2022-12-29T20:59:27.010Z,8.50
2022-12-29T21:01:29.837Z,8.40
2022-12-29T21:03:31.959Z,8.50
2022-12-29T21:05:36.208Z,8.50
2022-12-29T21:07:38.335Z,8.50
2022-12-29T21:09:40.144Z,8.50
2022-12-29T21:11:42.026Z,8.50
2022-12-29T21:13:43.683Z,8.40
2022-12-29T21:15:46.162Z,8.40
2022-12-29T21:17:47.893Z,8.40
2022-12-29T21:19:49.705Z,8.40
2022-12-29T21:21:51.598Z,8.40
2022-12-29T21:23:54.755Z,8.40
2022-12-29T21:25:56.921Z,8.30
2022-12-29T21:27:58.563Z,8.30
2022-12-29T21:30:01.698Z,8.40
2022-12-29T21:32:06.342Z,8.30
2022-12-29T21:34:09.293Z,8.30
2022-12-29T21:36:11.053Z,8.40
2022-12-29T21:38:12.918Z,8.30
2022-12-29T21:40:14.702Z,8.30
2022-12-29T21:42:16.284Z,8.30
2022-12-29T21:44:36.800Z,8.30
2022-12-29T21:46:40.151Z,8.20
2022-12-29T21:48:42.583Z,8.20
2022-12-29T21:51:04.063Z,8.20
2022-12-29T21:53:05.694Z,8.30
2022-12-29T21:55:08.907Z,8.30
2022-12-29T21:57:15.417Z,8.20
2022-12-29T21:59:39.825Z,8.20
2022-12-29T22:01:59.915Z,8.20
2022-12-29T22:04:20.357Z,8.20
2022-12-29T22:06:40.497Z,8.20
2022-12-29T22:09:00.480Z,8.10
2022-12-29T22:11:24.602Z,8.10
2022-12-29T22:13:26.257Z,8.10
2022-12-29T22:15:29.283Z,8.10
2022-12-29T22:17:35.169Z,8.10
2022-12-29T22:19:39.212Z,8.10
2022-12-29T22:21:40.953Z,8.10
2022-12-29T22:23:42.648Z,8.20
2022-12-29T22:25:44.940Z,8.20
2022-12-29T22:27:46.691Z,8.10
2022-12-29T22:29:48.362Z,8.10
2022-12-29T22:31:50.010Z,8.10
2022-12-29T22:33:51.665Z,8.10
2022-12-29T22:35:53.456Z,8.10
2022-12-29T22:37:55.227Z,8.10
2022-12-29T22:39:56.882Z,8.00
2022-12-29T22:41:58.495Z,8.10
2022-12-29T22:44:00.421Z,8.10
2022-12-29T22:46:07.700Z,8.10
2022-12-29T22:48:09.428Z,8.10
2022-12-29T22:50:11.231Z,8.00
2022-12-29T22:52:14.531Z,8.00
2022-12-29T22:54:16.364Z,8.00
2022-12-29T22:56:18.253Z,7.90
2022-12-29T22:58:19.959Z,7.90
2022-12-29T23:00:21.577Z,7.90
2022-12-29T23:02:23.470Z,7.80
2022-12-29T23:05:01.705Z,7.80
2022-12-29T23:06:46.970Z,7.80
2022-12-29T23:08:48.915Z,7.80
2022-12-29T23:10:50.613Z,7.80
2022-12-29T23:12:52.366Z,7.80
2022-12-29T23:14:54.050Z,7.80
2022-12-29T23:16:55.656Z,7.90
2022-12-29T23:18:57.329Z,7.80
2022-12-29T23:20:59.096Z,7.90
2022-12-29T23:23:00.785Z,7.80
2022-12-29T23:25:02.453Z,7.70
2022-12-29T23:27:04.189Z,7.70
2022-12-29T23:29:07.299Z,7.70
2022-12-29T23:31:09.048Z,7.70
2022-12-29T23:33:10.707Z,7.70
2022-12-29T23:35:12.340Z,7.70
2022-12-29T23:37:14.111Z,7.60
2022-12-29T23:39:18.566Z,7.60
2022-12-29T23:41:20.236Z,7.70
2022-12-29T23:43:22.020Z,7.70
2022-12-29T23:45:23.673Z,7.70
2022-12-29T23:47:25.349Z,7.70
2022-12-29T23:49:27.019Z,7.70
2022-12-29T23:51:28.815Z,7.70
2022-12-29T23:53:30.428Z,7.60
2022-12-29T23:55:32.057Z,7.60
2022-12-29T23:57:33.760Z,7.60
2022-12-29T23:59:35.410Z,7.60
